sensor_id;sensor_type;location;lat;lon;timestamp;temperature;humidity
9043;DHT22;4556;49.150;8.808;2022-10-19T00:01:01;12.60;99.90
9043;DHT22;4556;49.150;8.808;2022-10-19T00:03:28;12.60;99.90
9043;DHT22;4556;49.150;8.808;2022-10-19T00:05:56;13.90;99.90
9043;DHT22;4556;49.150;8.808;2022-10-19T00:08:23;13.50;99.90
9043;DHT22;4556;49.150;8.808;2022-10-19T00:10:52;12.80;99.90
9043;DHT22;4556;49.150;8.808;2022-10-19T00:13:19;13.70;99.90
9043;DHT22;4556;49.150;8.808;2022-10-19T00:15:46;13.00;99.90
9043;DHT22;4556;49.150;8.808;2022-10-19T00:18:13;12.80;99.90
9043;DHT22;4556;49.150;8.808;2022-10-19T00:20:40;12.80;99.90
9043;DHT22;4556;49.150;8.808;2022-10-19T00:23:07;12.90;99.90
9043;DHT22;4556;49.150;8.808;2022-10-19T00:25:34;13.00;99.90
9043;DHT22;4556;49.150;8.808;2022-10-19T00:28:04;14.40;99.90
9043;DHT22;4556;49.150;8.808;2022-10-19T00:30:35;15.10;99.90
9043;DHT22;4556;49.150;8.808;2022-10-19T00:33:02;13.30;99.90
9043;DHT22;4556;49.150;8.808;2022-10-19T00:35:30;13.20;99.90
9043;DHT22;4556;49.150;8.808;2022-10-19T00:37:57;15.10;99.90
9043;DHT22;4556;49.150;8.808;2022-10-19T00:40:24;13.10;99.90
9043;DHT22;4556;49.150;8.808;2022-10-19T00:42:53;13.10;99.90
9043;DHT22;4556;49.150;8.808;2022-10-19T00:45:23;13.20;99.90
9043;DHT22;4556;49.150;8.808;2022-10-19T00:47:50;14.70;99.90
9043;DHT22;4556;49.150;8.808;2022-10-19T00:50:17;13.20;99.90
9043;DHT22;4556;49.150;8.808;2022-10-19T00:52:45;15.00;99.90
9043;DHT22;4556;49.150;8.808;2022-10-19T00:55:12;14.10;99.90
9043;DHT22;4556;49.150;8.808;2022-10-19T00:57:39;13.30;99.90
9043;DHT22;4556;49.150;8.808;2022-10-19T01:00:07;14.70;99.90
9043;DHT22;4556;49.150;8.808;2022-10-19T01:02:36;13.30;99.90
9043;DHT22;4556;49.150;8.808;2022-10-19T01:05:05;13.40;99.90
9043;DHT22;4556;49.150;8.808;2022-10-19T01:07:32;13.60;99.90
9043;DHT22;4556;49.150;8.808;2022-10-19T01:10:00;13.70;99.90
9043;DHT22;4556;49.150;8.808;2022-10-19T01:12:46;13.70;99.90
9043;DHT22;4556;49.150;8.808;2022-10-19T01:15:26;13.80;99.90
9043;DHT22;4556;49.150;8.808;2022-10-19T01:18:02;13.80;99.90
9043;DHT22;4556;49.150;8.808;2022-10-19T01:20:55;13.80;99.90
9043;DHT22;4556;49.150;8.808;2022-10-19T01:23:59;13.80;99.90
9043;DHT22;4556;49.150;8.808;2022-10-19T01:26:50;13.80;99.90
9043;DHT22;4556;49.150;8.808;2022-10-19T01:29:34;13.90;
9043;DHT22;4556;49.150;8.808;2022-10-19T01:32:11;16.00;99.90
9043;DHT22;4556;49.150;8.808;2022-10-19T01:34:46;13.70;99.90
9043;DHT22;4556;49.150;8.808;2022-10-19T01:37:17;13.70;99.90
9043;DHT22;4556;49.150;8.808;2022-10-19T01:39:52;13.70;99.90
9043;DHT22;4556;49.150;8.808;2022-10-19T01:42:27;13.60;99.90
9043;DHT22;4556;49.150;8.808;2022-10-19T01:45:01;13.90;99.90
9043;DHT22;4556;49.150;8.808;2022-10-19T01:47:35;15.00;99.90
9043;DHT22;4556;49.150;8.808;2022-10-19T01:50:07;15.60;99.90
9043;DHT22;4556;49.150;8.808;2022-10-19T01:52:36;13.70;99.90
9043;DHT22;4556;49.150;8.808;2022-10-19T01:55:08;13.60;99.90
9043;DHT22;4556;49.150;8.808;2022-10-19T01:57:39;13.50;99.90
9043;DHT22;4556;49.150;8.808;2022-10-19T02:00:10;13.50;99.90
9043;DHT22;4556;49.150;8.808;2022-10-19T02:02:42;13.40;99.90
9043;DHT22;4556;49.150;8.808;2022-10-19T02:05:11;13.50;99.90
9043;DHT22;4556;49.150;8.808;2022-10-19T02:07:40;13.60;99.90
9043;DHT22;4556;49.150;8.808;2022-10-19T02:10:10;13.50;99.90
9043;DHT22;4556;49.150;8.808;2022-10-19T02:12:37;15.00;99.90
9043;DHT22;4556;49.150;8.808;2022-10-19T02:15:10;13.70;99.90
9043;DHT22;4556;49.150;8.808;2022-10-19T02:17:44;13.60;99.90
9043;DHT22;4556;49.150;8.808;2022-10-19T02:20:12;14.10;99.90
9043;DHT22;4556;49.150;8.808;2022-10-19T02:22:39;16.10;99.90
9043;DHT22;4556;49.150;8.808;2022-10-19T02:25:07;14.70;99.90
9043;DHT22;4556;49.150;8.808;2022-10-19T02:27:37;13.80;99.90
9043;DHT22;4556;49.150;8.808;2022-10-19T02:30:07;13.80;99.90
9043;DHT22;4556;49.150;8.808;2022-10-19T02:32:34;13.80;99.90
9043;DHT22;4556;49.150;8.808;2022-10-19T02:35:04;13.80;99.90
9043;DHT22;4556;49.150;8.808;2022-10-19T02:37:32;13.90;99.90
9043;DHT22;4556;49.150;8.808;2022-10-19T02:39:59;13.90;99.90
9043;DHT22;4556;49.150;8.808;2022-10-19T02:42:27;15.90;99.90
9043;DHT22;4556;49.150;8.808;2022-10-19T02:44:58;14.00;99.90
9043;DHT22;4556;49.150;8.808;2022-10-19T02:47:29;13.90;99.90
9043;DHT22;4556;49.150;8.808;2022-10-19T02:49:58;15.60;99.90
9043;DHT22;4556;49.150;8.808;2022-10-19T02:52:26;13.80;99.90
9043;DHT22;4556;49.150;8.808;2022-10-19T02:54:54;14.40;99.90
9043;DHT22;4556;49.150;8.808;2022-10-19T02:57:23;16.40;99.90
9043;DHT22;4556;49.150;8.808;2022-10-19T03:02:19;14.00;99.90
9043;DHT22;4556;49.150;8.808;2022-10-19T03:04:46;14.00;99.90
9043;DHT22;4556;49.150;8.808;2022-10-19T03:07:18;14.30;99.90
9043;DHT22;4556;49.150;8.808;2022-10-19T03:09:46;13.90;99.90
9043;DHT22;4556;49.150;8.808;2022-10-19T03:12:14;13.90;99.90
9043;DHT22;4556;49.150;8.808;2022-10-19T03:14:41;13.90;99.90
9043;DHT22;4556;49.150;8.808;2022-10-19T03:17:08;13.80;99.90
9043;DHT22;4556;49.150;8.808;2022-10-19T03:19:36;13.70;99.90
9043;DHT22;4556;49.150;8.808;2022-10-19T03:22:03;15.10;99.90
9043;DHT22;4556;49.150;8.808;2022-10-19T03:24:30;16.40;99.90
9043;DHT22;4556;49.150;8.808;2022-10-19T03:29:27;13.70;99.90
9043;DHT22;4556;49.150;8.808;2022-10-19T03:31:54;13.70;99.90
9043;DHT22;4556;49.150;8.808;2022-10-19T03:34:21;13.70;99.90
9043;DHT22;4556;49.150;8.808;2022-10-19T03:36:48;14.60;99.90
9043;DHT22;4556;49.150;8.808;2022-10-19T03:39:17;13.60;99.90
9043;DHT22;4556;49.150;8.808;2022-10-19T03:41:44;17.10;99.90
9043;DHT22;4556;49.150;8.808;2022-10-19T03:44:13;13.50;99.90
9043;DHT22;4556;49.150;8.808;2022-10-19T03:46:40;17.00;99.90
9043;DHT22;4556;49.150;8.808;2022-10-19T03:49:08;15.90;99.90
9043;DHT22;4556;49.150;8.808;2022-10-19T03:51:35;15.00;99.90
9043;DHT22;4556;49.150;8.808;2022-10-19T03:54:05;16.40;99.90
9043;DHT22;4556;49.150;8.808;2022-10-19T03:56:34;13.60;99.90
9043;DHT22;4556;49.150;8.808;2022-10-19T03:59:02;13.60;99.90
9043;DHT22;4556;49.150;8.808;2022-10-19T04:01:32;13.60;99.90
9043;DHT22;4556;49.150;8.808;2022-10-19T04:04:01;13.60;99.90
9043;DHT22;4556;49.150;8.808;2022-10-19T04:06:30;15.80;99.90
9043;DHT22;4556;49.150;8.808;2022-10-19T04:08:58;13.50;99.90
9043;DHT22;4556;49.150;8.808;2022-10-19T04:11:27;15.00;99.90
9043;DHT22;4556;49.150;8.808;2022-10-19T04:13:56;13.40;99.90
9043;DHT22;4556;49.150;8.808;2022-10-19T04:16:25;13.40;99.90
9043;DHT22;4556;49.150;8.808;2022-10-19T04:21:23;13.40;99.90
9043;DHT22;4556;49.150;8.808;2022-10-19T04:23:52;14.30;99.90
9043;DHT22;4556;49.150;8.808;2022-10-19T04:26:19;13.30;99.90
9043;DHT22;4556;49.150;8.808;2022-10-19T04:28:46;13.40;99.90
9043;DHT22;4556;49.150;8.808;2022-10-19T04:31:13;13.40;99.90
9043;DHT22;4556;49.150;8.808;2022-10-19T04:33:40;13.40;99.90
9043;DHT22;4556;49.150;8.808;2022-10-19T04:36:11;13.80;99.90
9043;DHT22;4556;49.150;8.808;2022-10-19T04:38:38;13.40;99.90
9043;DHT22;4556;49.150;8.808;2022-10-19T04:41:07;13.40;99.90
9043;DHT22;4556;49.150;8.808;2022-10-19T04:43:35;13.50;99.90
9043;DHT22;4556;49.150;8.808;2022-10-19T04:46:03;13.50;99.90
9043;DHT22;4556;49.150;8.808;2022-10-19T04:48:30;13.50;99.90
9043;DHT22;4556;49.150;8.808;2022-10-19T04:50:57;13.60;99.90
9043;DHT22;4556;49.150;8.808;2022-10-19T04:53:26;13.50;99.90
9043;DHT22;4556;49.150;8.808;2022-10-19T04:55:53;13.50;99.90
9043;DHT22;4556;49.150;8.808;2022-10-19T04:58:20;13.60;99.90
9043;DHT22;4556;49.150;8.808;2022-10-19T05:00:48;13.60;99.90
9043;DHT22;4556;49.150;8.808;2022-10-19T05:03:15;13.60;99.90
9043;DHT22;4556;49.150;8.808;2022-10-19T05:05:43;13.60;99.90
9043;DHT22;4556;49.150;8.808;2022-10-19T05:08:10;14.90;99.90
9043;DHT22;4556;49.150;8.808;2022-10-19T05:13:06;13.50;99.90
9043;DHT22;4556;49.150;8.808;2022-10-19T05:15:33;14.00;99.90
9043;DHT22;4556;49.150;8.808;2022-10-19T05:18:00;14.90;99.90
9043;DHT22;4556;49.150;8.808;2022-10-19T05:20:27;15.80;99.90
9043;DHT22;4556;49.150;8.808;2022-10-19T05:22:54;14.70;99.90
9043;DHT22;4556;49.150;8.808;2022-10-19T05:25:21;16.30;99.90
9043;DHT22;4556;49.150;8.808;2022-10-19T05:27:53;16.50;99.90
9043;DHT22;4556;49.150;8.808;2022-10-19T05:30:20;15.00;99.90
9043;DHT22;4556;49.150;8.808;2022-10-19T05:32:47;14.90;99.90
9043;DHT22;4556;49.150;8.808;2022-10-19T05:35:15;13.90;99.90
9043;DHT22;4556;49.150;8.808;2022-10-19T05:37:42;13.40;99.90
9043;DHT22;4556;49.150;8.808;2022-10-19T05:40:09;13.30;99.90
9043;DHT22;4556;49.150;8.808;2022-10-19T05:42:37;13.40;99.90
9043;DHT22;4556;49.150;8.808;2022-10-19T05:45:06;13.90;99.90
9043;DHT22;4556;49.150;8.808;2022-10-19T05:47:34;13.50;99.90
9043;DHT22;4556;49.150;8.808;2022-10-19T05:50:01;15.10;99.90
9043;DHT22;4556;49.150;8.808;2022-10-19T05:52:28;13.30;99.90
9043;DHT22;4556;49.150;8.808;2022-10-19T05:54:55;13.30;99.90
9043;DHT22;4556;49.150;8.808;2022-10-19T05:57:23;14.10;99.90
9043;DHT22;4556;49.150;8.808;2022-10-19T05:59:50;13.20;99.90
9043;DHT22;4556;49.150;8.808;2022-10-19T06:07:17;13.30;99.90
9043;DHT22;4556;49.150;8.808;2022-10-19T06:09:44;13.30;99.90
9043;DHT22;4556;49.150;8.808;2022-10-19T06:12:12;13.60;99.90
9043;DHT22;4556;49.150;8.808;2022-10-19T06:14:39;13.40;99.90
9043;DHT22;4556;49.150;8.808;2022-10-19T06:17:07;15.80;99.90
9043;DHT22;4556;49.150;8.808;2022-10-19T06:19:36;13.40;99.90
9043;DHT22;4556;49.150;8.808;2022-10-19T06:24:30;13.40;99.90
9043;DHT22;4556;49.150;8.808;2022-10-19T06:26:57;13.30;99.90
9043;DHT22;4556;49.150;8.808;2022-10-19T06:29:24;14.90;99.90
9043;DHT22;4556;49.150;8.808;2022-10-19T06:31:54;13.40;99.90
9043;DHT22;4556;49.150;8.808;2022-10-19T06:34:21;13.40;99.90
9043;DHT22;4556;49.150;8.808;2022-10-19T06:36:49;13.40;99.90
9043;DHT22;4556;49.150;8.808;2022-10-19T06:39:16;15.40;99.90
9043;DHT22;4556;49.150;8.808;2022-10-19T06:44:10;13.40;99.90
9043;DHT22;4556;49.150;8.808;2022-10-19T06:46:37;15.10;99.90
9043;DHT22;4556;49.150;8.808;2022-10-19T06:49:04;15.60;99.90
9043;DHT22;4556;49.150;8.808;2022-10-19T06:51:32;13.30;99.90
9043;DHT22;4556;49.150;8.808;2022-10-19T06:54:01;13.30;99.90
9043;DHT22;4556;49.150;8.808;2022-10-19T06:56:28;17.10;99.90
9043;DHT22;4556;49.150;8.808;2022-10-19T06:58:56;10.40;99.90
9043;DHT22;4556;49.150;8.808;2022-10-19T07:01:24;16.50;99.90
9043;DHT22;4556;49.150;8.808;2022-10-19T07:03:51;13.40;99.90
9043;DHT22;4556;49.150;8.808;2022-10-19T07:06:19;13.30;99.90
9043;DHT22;4556;49.150;8.808;2022-10-19T07:08:46;13.30;99.90
9043;DHT22;4556;49.150;8.808;2022-10-19T07:11:17;13.30;99.90
9043;DHT22;4556;49.150;8.808;2022-10-19T07:13:45;13.30;99.90
9043;DHT22;4556;49.150;8.808;2022-10-19T07:16:13;13.60;99.90
9043;DHT22;4556;49.150;8.808;2022-10-19T07:18:41;15.40;99.90
9043;DHT22;4556;49.150;8.808;2022-10-19T07:21:10;13.30;99.90
9043;DHT22;4556;49.150;8.808;2022-10-19T07:23:39;13.30;99.90
9043;DHT22;4556;49.150;8.808;2022-10-19T07:26:08;13.20;99.90
9043;DHT22;4556;49.150;8.808;2022-10-19T07:28:38;13.20;99.90
9043;DHT22;4556;49.150;8.808;2022-10-19T07:31:07;13.10;99.90
9043;DHT22;4556;49.150;8.808;2022-10-19T07:33:34;15.30;99.90
9043;DHT22;4556;49.150;8.808;2022-10-19T07:36:03;13.10;99.90
9043;DHT22;4556;49.150;8.808;2022-10-19T07:38:31;13.20;99.90
9043;DHT22;4556;49.150;8.808;2022-10-19T07:41:00;13.30;99.90
9043;DHT22;4556;49.150;8.808;2022-10-19T07:43:27;13.20;99.90
9043;DHT22;4556;49.150;8.808;2022-10-19T07:46:00;13.20;99.90
9043;DHT22;4556;49.150;8.808;2022-10-19T07:48:27;13.20;99.90
9043;DHT22;4556;49.150;8.808;2022-10-19T07:50:55;14.20;99.90
9043;DHT22;4556;49.150;8.808;2022-10-19T07:53:22;15.20;99.90
9043;DHT22;4556;49.150;8.808;2022-10-19T07:55:49;13.40;99.90
9043;DHT22;4556;49.150;8.808;2022-10-19T07:58:16;14.30;99.90
9043;DHT22;4556;49.150;8.808;2022-10-19T08:00:44;13.30;99.90
9043;DHT22;4556;49.150;8.808;2022-10-19T08:03:12;13.30;99.90
9043;DHT22;4556;49.150;8.808;2022-10-19T08:05:40;14.80;99.90
9043;DHT22;4556;49.150;8.808;2022-10-19T08:08:06;13.40;99.90
9043;DHT22;4556;49.150;8.808;2022-10-19T08:10:33;13.30;99.90
9043;DHT22;4556;49.150;8.808;2022-10-19T08:13:00;14.40;99.90
9043;DHT22;4556;49.150;8.808;2022-10-19T08:15:28;16.10;99.90
9043;DHT22;4556;49.150;8.808;2022-10-19T08:17:57;13.40;99.90
9043;DHT22;4556;49.150;8.808;2022-10-19T08:20:26;15.80;99.90
9043;DHT22;4556;49.150;8.808;2022-10-19T08:22:53;16.20;99.90
9043;DHT22;4556;49.150;8.808;2022-10-19T08:25:21;14.20;99.90
9043;DHT22;4556;49.150;8.808;2022-10-19T08:27:47;13.50;99.90
9043;DHT22;4556;49.150;8.808;2022-10-19T08:35:10;13.40;99.90
9043;DHT22;4556;49.150;8.808;2022-10-19T08:40:08;13.40;99.90
9043;DHT22;4556;49.150;8.808;2022-10-19T08:42:46;14.70;99.90
9043;DHT22;4556;49.150;8.808;2022-10-19T08:45:38;13.50;99.90
9043;DHT22;4556;49.150;8.808;2022-10-19T08:48:21;13.40;99.90
9043;DHT22;4556;49.150;8.808;2022-10-19T08:50:50;13.50;99.90
9043;DHT22;4556;49.150;8.808;2022-10-19T08:53:28;13.50;99.90
9043;DHT22;4556;49.150;8.808;2022-10-19T08:56:07;13.50;99.90
9043;DHT22;4556;49.150;8.808;2022-10-19T08:58:49;13.50;99.90
9043;DHT22;4556;49.150;8.808;2022-10-19T09:01:28;13.60;99.90
9043;DHT22;4556;49.150;8.808;2022-10-19T09:04:00;13.50;99.90
9043;DHT22;4556;49.150;8.808;2022-10-19T09:06:33;13.60;99.90
9043;DHT22;4556;49.150;8.808;2022-10-19T09:09:03;13.60;99.90
9043;DHT22;4556;49.150;8.808;2022-10-19T09:11:34;13.70;99.90
9043;DHT22;4556;49.150;8.808;2022-10-19T09:14:12;16.50;99.90
9043;DHT22;4556;49.150;8.808;2022-10-19T09:16:41;16.00;99.90
9043;DHT22;4556;49.150;8.808;2022-10-19T09:19:20;15.00;99.90
9043;DHT22;4556;49.150;8.808;2022-10-19T09:21:52;14.50;99.90
9043;DHT22;4556;49.150;8.808;2022-10-19T09:24:30;13.80;99.90
9043;DHT22;4556;49.150;8.808;2022-10-19T09:26:59;13.80;99.90
9043;DHT22;4556;49.150;8.808;2022-10-19T09:29:32;13.80;99.90
9043;DHT22;4556;49.150;8.808;2022-10-19T09:32:03;16.90;99.90
9043;DHT22;4556;49.150;8.808;2022-10-19T09:34:35;14.00;99.90
9043;DHT22;4556;49.150;8.808;2022-10-19T09:37:03;13.90;99.90
9043;DHT22;4556;49.150;8.808;2022-10-19T09:39:31;14.00;99.90
9043;DHT22;4556;49.150;8.808;2022-10-19T09:42:05;14.00;99.90
9043;DHT22;4556;49.150;8.808;2022-10-19T09:44:33;16.00;99.90
9043;DHT22;4556;49.150;8.808;2022-10-19T09:47:06;14.00;99.90
9043;DHT22;4556;49.150;8.808;2022-10-19T09:49:38;15.60;99.90
9043;DHT22;4556;49.150;8.808;2022-10-19T09:52:22;14.20;99.90
9043;DHT22;4556;49.150;8.808;2022-10-19T09:54:59;14.10;99.90
9043;DHT22;4556;49.150;8.808;2022-10-19T09:57:26;15.20;99.90
9043;DHT22;4556;49.150;8.808;2022-10-19T09:59:54;15.60;99.90
9043;DHT22;4556;49.150;8.808;2022-10-19T10:02:28;14.90;99.90
9043;DHT22;4556;49.150;8.808;2022-10-19T10:05:03;14.40;99.90
9043;DHT22;4556;49.150;8.808;2022-10-19T10:07:34;16.40;99.90
9043;DHT22;4556;49.150;8.808;2022-10-19T10:10:08;14.40;99.90
9043;DHT22;4556;49.150;8.808;2022-10-19T10:12:36;14.50;99.90
9043;DHT22;4556;49.150;8.808;2022-10-19T10:15:06;15.50;99.90
9043;DHT22;4556;49.150;8.808;2022-10-19T10:17:33;14.50;99.90
9043;DHT22;4556;49.150;8.808;2022-10-19T10:20:17;14.90;99.90
9043;DHT22;4556;49.150;8.808;2022-10-19T10:22:56;14.60;99.90
9043;DHT22;4556;49.150;8.808;2022-10-19T10:25:27;14.70;99.90
9043;DHT22;4556;49.150;8.808;2022-10-19T10:28:00;16.70;99.90
9043;DHT22;4556;49.150;8.808;2022-10-19T10:30:31;14.50;99.90
9043;DHT22;4556;49.150;8.808;2022-10-19T10:32:59;16.40;99.90
9043;DHT22;4556;49.150;8.808;2022-10-19T10:35:31;14.50;99.90
9043;DHT22;4556;49.150;8.808;2022-10-19T10:38:07;14.50;99.90
9043;DHT22;4556;49.150;8.808;2022-10-19T10:40:37;14.50;99.90
9043;DHT22;4556;49.150;8.808;2022-10-19T10:43:07;15.80;99.90
9043;DHT22;4556;49.150;8.808;2022-10-19T10:45:38;16.60;99.90
9043;DHT22;4556;49.150;8.808;2022-10-19T10:48:16;14.30;99.90
9043;DHT22;4556;49.150;8.808;2022-10-19T10:50:45;14.40;99.90
9043;DHT22;4556;49.150;8.808;2022-10-19T10:53:31;17.30;99.90
9043;DHT22;4556;49.150;8.808;2022-10-19T10:56:01;14.40;99.90
9043;DHT22;4556;49.150;8.808;2022-10-19T10:58:35;14.50;99.90
9043;DHT22;4556;49.150;8.808;2022-10-19T11:01:06;16.20;99.90
9043;DHT22;4556;49.150;8.808;2022-10-19T11:03:44;15.40;99.90
9043;DHT22;4556;49.150;8.808;2022-10-19T11:06:13;14.70;99.90
9043;DHT22;4556;49.150;8.808;2022-10-19T11:08:47;15.90;99.90
9043;DHT22;4556;49.150;8.808;2022-10-19T11:11:20;14.60;99.90
9043;DHT22;4556;49.150;8.808;2022-10-19T11:13:51;15.90;99.90
9043;DHT22;4556;49.150;8.808;2022-10-19T11:16:23;15.00;99.90
9043;DHT22;4556;49.150;8.808;2022-10-19T11:18:54;15.00;99.90
9043;DHT22;4556;49.150;8.808;2022-10-19T11:21:28;15.90;99.90
9043;DHT22;4556;49.150;8.808;2022-10-19T11:24:06;15.60;99.90
9043;DHT22;4556;49.150;8.808;2022-10-19T11:26:49;15.90;99.90
9043;DHT22;4556;49.150;8.808;2022-10-19T11:29:37;16.40;99.90
9043;DHT22;4556;49.150;8.808;2022-10-19T11:32:14;16.80;99.90
9043;DHT22;4556;49.150;8.808;2022-10-19T11:34:52;16.30;99.90
9043;DHT22;4556;49.150;8.808;2022-10-19T11:37:27;16.40;99.90
9043;DHT22;4556;49.150;8.808;2022-10-19T11:40:07;16.00;99.90
9043;DHT22;4556;49.150;8.808;2022-10-19T11:42:46;16.10;99.90
9043;DHT22;4556;49.150;8.808;2022-10-19T11:45:21;16.20;99.90
9043;DHT22;4556;49.150;8.808;2022-10-19T11:48:12;16.30;99.90
9043;DHT22;4556;49.150;8.808;2022-10-19T11:50:48;16.40;99.90
9043;DHT22;4556;49.150;8.808;2022-10-19T11:53:25;16.40;99.90
9043;DHT22;4556;49.150;8.808;2022-10-19T11:55:59;17.20;99.90
9043;DHT22;4556;49.150;8.808;2022-10-19T12:01:28;16.30;99.90
9043;DHT22;4556;49.150;8.808;2022-10-19T12:04:15;16.30;99.90
9043;DHT22;4556;49.150;8.808;2022-10-19T12:06:53;16.30;99.90
9043;DHT22;4556;49.150;8.808;2022-10-19T12:09:36;17.90;99.90
9043;DHT22;4556;49.150;8.808;2022-10-19T12:12:24;16.40;99.90
9043;DHT22;4556;49.150;8.808;2022-10-19T12:14:59;17.40;99.90
9043;DHT22;4556;49.150;8.808;2022-10-19T12:17:32;16.50;99.90
9043;DHT22;4556;49.150;8.808;2022-10-19T12:20:05;16.40;99.90
9043;DHT22;4556;49.150;8.808;2022-10-19T12:22:34;16.30;99.90
9043;DHT22;4556;49.150;8.808;2022-10-19T12:25:03;16.40;99.90
9043;DHT22;4556;49.150;8.808;2022-10-19T12:27:34;16.50;99.90
9043;DHT22;4556;49.150;8.808;2022-10-19T12:30:06;16.50;99.90
9043;DHT22;4556;49.150;8.808;2022-10-19T12:32:42;16.60;99.90
9043;DHT22;4556;49.150;8.808;2022-10-19T12:35:24;17.30;99.90
9043;DHT22;4556;49.150;8.808;2022-10-19T12:37:58;16.50;99.90
9043;DHT22;4556;49.150;8.808;2022-10-19T12:40:33;16.50;99.90
9043;DHT22;4556;49.150;8.808;2022-10-19T12:43:09;16.50;99.90
9043;DHT22;4556;49.150;8.808;2022-10-19T12:45:42;16.60;99.90
9043;DHT22;4556;49.150;8.808;2022-10-19T12:48:18;16.50;99.90
9043;DHT22;4556;49.150;8.808;2022-10-19T12:51:01;16.50;99.90
9043;DHT22;4556;49.150;8.808;2022-10-19T12:53:30;18.70;99.90
9043;DHT22;4556;49.150;8.808;2022-10-19T12:56:02;16.50;99.90
9043;DHT22;4556;49.150;8.808;2022-10-19T12:58:38;16.50;99.90
9043;DHT22;4556;49.150;8.808;2022-10-19T13:01:17;16.50;99.90
9043;DHT22;4556;49.150;8.808;2022-10-19T13:03:44;16.40;99.90
9043;DHT22;4556;49.150;8.808;2022-10-19T13:06:14;16.50;99.90
9043;DHT22;4556;49.150;8.808;2022-10-19T13:08:52;16.50;99.90
9043;DHT22;4556;49.150;8.808;2022-10-19T13:11:20;16.80;99.90
9043;DHT22;4556;49.150;8.808;2022-10-19T13:13:58;18.90;99.90
9043;DHT22;4556;49.150;8.808;2022-10-19T13:19:29;16.90;99.90
9043;DHT22;4556;49.150;8.808;2022-10-19T13:25:13;16.90;99.90
9043;DHT22;4556;49.150;8.808;2022-10-19T13:27:46;17.10;99.90
9043;DHT22;4556;49.150;8.808;2022-10-19T13:33:47;17.10;99.90
9043;DHT22;4556;49.150;8.808;2022-10-19T13:36:16;17.10;99.90
9043;DHT22;4556;49.150;8.808;2022-10-19T13:38:45;17.00;99.90
9043;DHT22;4556;49.150;8.808;2022-10-19T13:41:17;18.60;99.90
9043;DHT22;4556;49.150;8.808;2022-10-19T13:43:52;17.00;99.90
9043;DHT22;4556;49.150;8.808;2022-10-19T13:46:30;17.00;99.90
9043;DHT22;4556;49.150;8.808;2022-10-19T13:52:32;16.90;99.90
9043;DHT22;4556;49.150;8.808;2022-10-19T13:58:16;16.90;99.90
9043;DHT22;4556;49.150;8.808;2022-10-19T14:01:01;16.90;99.90
9043;DHT22;4556;49.150;8.808;2022-10-19T14:03:43;18.10;99.90
9043;DHT22;4556;49.150;8.808;2022-10-19T14:06:23;16.90;99.90
9043;DHT22;4556;49.150;8.808;2022-10-19T14:09:14;16.80;99.90
9043;DHT22;4556;49.150;8.808;2022-10-19T14:11:46;16.70;99.90
9043;DHT22;4556;49.150;8.808;2022-10-19T14:14:16;17.90;99.90
9043;DHT22;4556;49.150;8.808;2022-10-19T14:16:50;16.70;99.90
9043;DHT22;4556;49.150;8.808;2022-10-19T14:19:24;19.00;99.90
9043;DHT22;4556;49.150;8.808;2022-10-19T14:21:55;16.80;99.90
9043;DHT22;4556;49.150;8.808;2022-10-19T14:24:33;16.70;99.90
9043;DHT22;4556;49.150;8.808;2022-10-19T14:27:04;16.70;99.90
9043;DHT22;4556;49.150;8.808;2022-10-19T14:29:34;16.70;99.90
9043;DHT22;4556;49.150;8.808;2022-10-19T14:32:03;16.70;99.90
9043;DHT22;4556;49.150;8.808;2022-10-19T14:34:33;16.70;99.90
9043;DHT22;4556;49.150;8.808;2022-10-19T14:37:12;16.70;99.90
9043;DHT22;4556;49.150;8.808;2022-10-19T14:39:41;16.70;99.90
9043;DHT22;4556;49.150;8.808;2022-10-19T14:42:41;17.10;99.90
9043;DHT22;4556;49.150;8.808;2022-10-19T14:45:12;16.70;99.90
9043;DHT22;4556;49.150;8.808;2022-10-19T14:47:51;16.60;99.90
9043;DHT22;4556;49.150;8.808;2022-10-19T14:50:20;16.70;99.90
9043;DHT22;4556;49.150;8.808;2022-10-19T14:52:49;16.70;99.90
9043;DHT22;4556;49.150;8.808;2022-10-19T14:55:19;16.70;99.90
9043;DHT22;4556;49.150;8.808;2022-10-19T14:57:49;16.60;99.90
9043;DHT22;4556;49.150;8.808;2022-10-19T15:00:19;16.60;99.90
9043;DHT22;4556;49.150;8.808;2022-10-19T15:02:53;16.60;99.90
9043;DHT22;4556;49.150;8.808;2022-10-19T15:05:25;16.60;99.90
9043;DHT22;4556;49.150;8.808;2022-10-19T15:07:54;16.50;99.90
9043;DHT22;4556;49.150;8.808;2022-10-19T15:10:25;16.50;99.90
9043;DHT22;4556;49.150;8.808;2022-10-19T15:12:57;18.30;99.90
9043;DHT22;4556;49.150;8.808;2022-10-19T15:15:28;16.60;99.90
9043;DHT22;4556;49.150;8.808;2022-10-19T15:18:03;19.00;99.90
9043;DHT22;4556;49.150;8.808;2022-10-19T15:20:33;16.30;99.90
9043;DHT22;4556;49.150;8.808;2022-10-19T15:23:01;16.30;99.90
9043;DHT22;4556;49.150;8.808;2022-10-19T15:25:33;16.20;99.90
9043;DHT22;4556;49.150;8.808;2022-10-19T15:28:29;18.10;99.90
9043;DHT22;4556;49.150;8.808;2022-10-19T15:30:58;16.30;99.90
9043;DHT22;4556;49.150;8.808;2022-10-19T15:33:26;16.20;99.90
9043;DHT22;4556;49.150;8.808;2022-10-19T15:36:05;16.10;99.90
9043;DHT22;4556;49.150;8.808;2022-10-19T15:38:34;16.00;99.90
9043;DHT22;4556;49.150;8.808;2022-10-19T15:41:03;15.90;99.90
9043;DHT22;4556;49.150;8.808;2022-10-19T15:43:36;15.90;99.90
9043;DHT22;4556;49.150;8.808;2022-10-19T15:46:05;15.90;99.90
9043;DHT22;4556;49.150;8.808;2022-10-19T15:48:45;15.80;99.90
9043;DHT22;4556;49.150;8.808;2022-10-19T15:54:18;15.70;99.90
9043;DHT22;4556;49.150;8.808;2022-10-19T15:56:50;15.60;99.90
9043;DHT22;4556;49.150;8.808;2022-10-19T15:59:19;15.60;99.90
9043;DHT22;4556;49.150;8.808;2022-10-19T16:01:48;16.90;99.90
9043;DHT22;4556;49.150;8.808;2022-10-19T16:04:15;15.50;99.90
9043;DHT22;4556;49.150;8.808;2022-10-19T16:06:44;15.40;99.90
9043;DHT22;4556;49.150;8.808;2022-10-19T16:09:16;15.40;99.90
9043;DHT22;4556;49.150;8.808;2022-10-19T16:11:43;15.20;99.90
9043;DHT22;4556;49.150;8.808;2022-10-19T16:14:12;15.60;99.90
9043;DHT22;4556;49.150;8.808;2022-10-19T16:16:39;15.80;99.90
9043;DHT22;4556;49.150;8.808;2022-10-19T16:19:08;13.80;99.90
9043;DHT22;4556;49.150;8.808;2022-10-19T16:21:37;16.50;99.90
9043;DHT22;4556;49.150;8.808;2022-10-19T16:24:05;16.20;99.90
9043;DHT22;4556;49.150;8.808;2022-10-19T16:26:32;14.90;99.90
9043;DHT22;4556;49.150;8.808;2022-10-19T16:29:00;14.80;99.90
9043;DHT22;4556;49.150;8.808;2022-10-19T16:31:28;14.70;99.90
9043;DHT22;4556;49.150;8.808;2022-10-19T16:33:56;14.70;99.90
9043;DHT22;4556;49.150;8.808;2022-10-19T16:36:23;14.70;99.90
9043;DHT22;4556;49.150;8.808;2022-10-19T16:38:53;14.60;99.90
9043;DHT22;4556;49.150;8.808;2022-10-19T16:41:20;16.00;99.90
9043;DHT22;4556;49.150;8.808;2022-10-19T16:43:53;14.50;99.90
9043;DHT22;4556;49.150;8.808;2022-10-19T16:46:20;15.00;99.90
9043;DHT22;4556;49.150;8.808;2022-10-19T16:48:49;16.30;99.90
9043;DHT22;4556;49.150;8.808;2022-10-19T16:54:09;14.20;99.90
9043;DHT22;4556;49.150;8.808;2022-10-19T16:56:42;15.30;99.90
9043;DHT22;4556;49.150;8.808;2022-10-19T16:59:10;14.00;99.90
9043;DHT22;4556;49.150;8.808;2022-10-19T17:01:39;13.90;99.90
9043;DHT22;4556;49.150;8.808;2022-10-19T17:04:07;16.00;99.90
9043;DHT22;4556;49.150;8.808;2022-10-19T17:06:34;14.00;99.90
9043;DHT22;4556;49.150;8.808;2022-10-19T17:09:01;13.90;99.90
9043;DHT22;4556;49.150;8.808;2022-10-19T17:11:30;15.10;99.90
9043;DHT22;4556;49.150;8.808;2022-10-19T17:14:00;16.70;99.90
9043;DHT22;4556;49.150;8.808;2022-10-19T17:16:28;13.90;99.90
9043;DHT22;4556;49.150;8.808;2022-10-19T17:18:57;13.80;99.90